createdAt,value
2018-09-18T00:03:47.367Z,53.2
2018-09-18T00:08:45.946Z,53.4
2018-09-18T00:13:44.312Z,53.3
2018-09-18T00:18:42.506Z,53.2
2018-09-18T00:23:41.249Z,53.2
2018-09-18T00:28:39.960Z,53.2
2018-09-18T00:33:37.920Z,53.2
2018-09-18T00:38:36.019Z,53.3
2018-09-18T00:43:34.438Z,53.4
2018-09-18T00:48:32.879Z,53.5
2018-09-18T00:53:31.501Z,53.4
2018-09-18T00:58:30.512Z,53.5
2018-09-18T01:03:28.964Z,53.5
2018-09-18T01:08:27.453Z,53.5
2018-09-18T01:13:25.687Z,53.5
2018-09-18T01:18:24.220Z,53.7
2018-09-18T01:23:22.634Z,53.6
2018-09-18T01:28:21.366Z,53.5
2018-09-18T01:33:19.883Z,53.6
2018-09-18T01:38:18.240Z,53.9
2018-09-18T01:43:16.893Z,53.8
2018-09-18T01:48:15.494Z,53.7
2018-09-18T01:53:13.758Z,53.5
2018-09-18T01:58:12.712Z,53.4
2018-09-18T02:03:11.348Z,53.4
2018-09-18T02:08:09.820Z,53.4
2018-09-18T02:13:08.095Z,53.4
2018-09-18T02:18:06.563Z,53.2
2018-09-18T02:23:05.911Z,53.2
2018-09-18T02:28:04.300Z,53.2
2018-09-18T02:33:02.743Z,53.1
2018-09-18T02:38:00.879Z,53.1
2018-09-18T02:42:59.173Z,53.2
2018-09-18T02:47:57.546Z,53.1
2018-09-18T02:52:56.008Z,53.1
2018-09-18T02:57:54.923Z,53.2
2018-09-18T03:02:53.887Z,53.2
2018-09-18T03:07:55.127Z,53.3
2018-09-18T03:12:54.743Z,53.1
2018-09-18T03:17:53.187Z,53.2
2018-09-18T03:22:52.738Z,53.2
2018-09-18T03:27:51.080Z,53.1
2018-09-18T03:32:50.461Z,53.2
2018-09-18T03:37:48.776Z,53.1
2018-09-18T03:42:48.486Z,53.1
2018-09-18T03:47:46.694Z,53
2018-09-18T03:52:45.083Z,53
2018-09-18T03:57:44.003Z,53
2018-09-18T04:02:42.874Z,53.1
2018-09-18T04:07:41.052Z,53.1
2018-09-18T04:12:41.172Z,53.1
2018-09-18T04:17:38.991Z,53
2018-09-18T04:22:37.628Z,53.2
2018-09-18T04:27:36.722Z,53.1
2018-09-18T04:32:35.697Z,53.1
2018-09-18T04:37:34.029Z,53.2
2018-09-18T04:42:32.530Z,53.4
2018-09-18T04:47:31.443Z,53.4
2018-09-18T04:52:30.310Z,53.3
2018-09-18T04:57:29.089Z,53.5
2018-09-18T05:02:28.391Z,53.4
2018-09-18T05:07:26.883Z,53.2
2018-09-18T05:12:25.331Z,53
2018-09-18T05:17:23.559Z,53.2
2018-09-18T05:22:21.857Z,53.1
2018-09-18T05:27:20.969Z,53.4
2018-09-18T05:32:19.077Z,53.3
2018-09-18T05:37:17.521Z,53.1
2018-09-18T05:42:16.078Z,53.3
2018-09-18T05:47:14.908Z,53.3
2018-09-18T05:52:13.120Z,53.4
2018-09-18T05:57:11.195Z,53.2
2018-09-18T06:02:10.059Z,53.2
2018-09-18T06:07:08.182Z,53.2
2018-09-18T06:12:06.562Z,53
2018-09-18T06:17:05.346Z,52.9
2018-09-18T06:22:04.289Z,52.9
2018-09-18T06:27:02.734Z,52.8
2018-09-18T06:32:01.403Z,52.8
2018-09-18T06:36:59.981Z,52.7
2018-09-18T06:41:58.920Z,52.7
2018-09-18T06:46:57.479Z,52.9
2018-09-18T06:51:56.663Z,52.7
2018-09-18T06:56:55.865Z,52.8
2018-09-18T07:01:54.816Z,52.6
2018-09-18T07:06:53.500Z,52.6
2018-09-18T07:11:52.042Z,52.6
2018-09-18T07:16:50.562Z,52.6
2018-09-18T07:21:50.271Z,52.5
2018-09-18T07:26:48.610Z,52.5
2018-09-18T07:31:47.442Z,52.3
2018-09-18T07:36:45.910Z,52.4
2018-09-18T07:41:44.395Z,52.4
2018-09-18T07:46:42.942Z,52.4
2018-09-18T07:51:41.739Z,52.4
2018-09-18T07:56:40.920Z,51.8
2018-09-18T08:01:39.282Z,52.1
2018-09-18T08:06:38.004Z,51.9
2018-09-18T08:11:36.291Z,51.7
2018-09-18T08:16:34.850Z,52
2018-09-18T08:21:33.579Z,51.7
2018-09-18T08:26:32.222Z,51.7
2018-09-18T08:31:31.024Z,51.7
2018-09-18T08:36:29.813Z,51.5
2018-09-18T08:41:28.639Z,51.5
2018-09-18T08:46:27.618Z,51.1
2018-09-18T08:51:26.473Z,51.3
2018-09-18T08:56:25.051Z,51.1
2018-09-18T09:01:24.820Z,50.8
2018-09-18T09:06:23.802Z,50.9
2018-09-18T09:11:22.770Z,50.6
2018-09-18T09:16:21.360Z,50.4
2018-09-18T09:21:20.510Z,50.3
2018-09-18T09:26:19.381Z,50.1
2018-09-18T09:31:17.918Z,49.9
2018-09-18T09:36:16.717Z,49.5
2018-09-18T09:41:15.587Z,49.2
2018-09-18T09:46:14.296Z,49.5
2018-09-18T09:51:13.587Z,49.1
2018-09-18T09:56:12.451Z,48.7
2018-09-18T10:01:09.184Z,47.8
2018-09-18T10:06:07.890Z,47.2
2018-09-18T10:11:07.310Z,47.1
2018-09-18T10:16:06.168Z,46.7
2018-09-18T10:21:05.044Z,46.4
2018-09-18T10:26:03.852Z,46.2
2018-09-18T10:31:02.713Z,45.8
2018-09-18T10:36:02.272Z,44.8
2018-09-18T10:41:01.234Z,45
2018-09-18T10:45:59.801Z,44.2
2018-09-18T10:50:58.837Z,43.2
2018-09-18T10:55:58.336Z,43.4
2018-09-18T11:00:57.501Z,43.3
2018-09-18T11:05:56.375Z,42.2
2018-09-18T11:10:55.472Z,41.8
2018-09-18T11:15:54.387Z,40.9
2018-09-18T11:20:53.285Z,40.6
2018-09-18T11:25:52.128Z,39.7
2018-09-18T11:30:50.914Z,39.2
2018-09-18T11:35:49.706Z,38.6
2018-09-18T11:40:49.153Z,38.2
2018-09-18T11:45:48.224Z,37.9
2018-09-18T11:50:46.911Z,37.4
2018-09-18T11:55:45.939Z,36.6
2018-09-18T12:00:44.888Z,36.9
2018-09-18T12:05:43.716Z,37
2018-09-18T12:10:42.738Z,36.8
2018-09-18T12:15:41.589Z,36.7
2018-09-18T12:20:40.346Z,36.3
2018-09-18T12:25:39.283Z,35.9
2018-09-18T12:30:38.690Z,35.8
2018-09-18T12:35:37.669Z,35.6
2018-09-18T12:40:36.294Z,35.4
2018-09-18T12:45:35.237Z,35.2
2018-09-18T12:50:34.646Z,34.9
2018-09-18T12:55:33.157Z,34.8
2018-09-18T13:00:32.317Z,34.7
2018-09-18T13:05:31.421Z,34.6
2018-09-18T13:10:30.308Z,34.5
2018-09-18T13:15:29.895Z,34.3
2018-09-18T13:20:28.621Z,33.8
2018-09-18T13:25:28.188Z,33.4
2018-09-18T13:30:27.053Z,33.2
2018-09-18T13:35:25.888Z,33.6
2018-09-18T13:40:24.756Z,33.8
2018-09-18T13:45:23.397Z,34.2
2018-09-18T13:50:23.387Z,34.3
2018-09-18T13:55:22.340Z,34.7
2018-09-18T14:00:21.477Z,34.9
2018-09-18T14:05:21.857Z,34.9
2018-09-18T14:10:20.548Z,35
2018-09-18T14:15:19.465Z,35.1
2018-09-18T14:20:18.363Z,35.1
2018-09-18T14:25:17.406Z,34.8
2018-09-18T14:30:16.460Z,34.9
2018-09-18T14:35:15.411Z,35.1
2018-09-18T14:40:14.544Z,35.4
2018-09-18T14:45:13.452Z,35.5
2018-09-18T14:50:12.342Z,35.4
2018-09-18T14:55:12.112Z,35.6
2018-09-18T15:00:11.419Z,35.8
2018-09-18T15:05:10.078Z,35.7
2018-09-18T15:10:09.016Z,35.9
2018-09-18T15:15:07.553Z,36.1
2018-09-18T15:20:06.759Z,35.8
2018-09-18T15:25:05.767Z,36
2018-09-18T15:30:04.728Z,36
2018-09-18T15:35:03.574Z,35.9
2018-09-18T15:40:02.712Z,36.3
2018-09-18T15:45:01.009Z,36.4
2018-09-18T15:50:00.069Z,36.6
2018-09-18T15:54:59.661Z,36.7
2018-09-18T15:59:58.748Z,36.7
2018-09-18T16:04:57.599Z,36.9
2018-09-18T16:09:56.268Z,37.2
2018-09-18T16:14:55.200Z,37.5
2018-09-18T16:19:54.446Z,37.6
2018-09-18T16:24:53.320Z,38
2018-09-18T16:29:52.373Z,38.3
2018-09-18T16:34:51.004Z,38.5
2018-09-18T16:39:50.111Z,39.5
2018-09-18T16:44:49.208Z,39.4
2018-09-18T16:49:48.206Z,39.7
2018-09-18T16:54:47.128Z,40.2
2018-09-18T16:59:46.423Z,40.2
2018-09-18T17:04:45.796Z,40.9
2018-09-18T17:09:44.643Z,41.7
2018-09-18T17:14:44.303Z,42
2018-09-18T17:19:43.311Z,42.3
2018-09-18T17:24:42.305Z,42.9
2018-09-18T17:29:41.239Z,43
2018-09-18T17:34:40.792Z,43.2
2018-09-18T17:39:39.924Z,43.4
2018-09-18T17:44:39.268Z,43.5
2018-09-18T17:49:38.494Z,43.8
2018-09-18T17:54:37.799Z,43.9
2018-09-18T17:59:37.134Z,44
2018-09-18T18:04:36.057Z,44.2
2018-09-18T18:09:34.826Z,44.3
2018-09-18T18:14:33.892Z,44.3
2018-09-18T18:19:32.846Z,44.3
2018-09-18T18:24:31.917Z,44.6
2018-09-18T18:29:31.144Z,44.6
2018-09-18T18:34:30.753Z,44.6
2018-09-18T18:39:29.563Z,44.8
2018-09-18T18:44:28.380Z,44.9
2018-09-18T18:49:27.676Z,45
2018-09-18T18:54:27.287Z,45.2
2018-09-18T18:59:26.688Z,45.3
2018-09-18T19:04:26.076Z,45.3
2018-09-18T19:09:25.364Z,45.5
2018-09-18T19:14:24.470Z,45.8
2018-09-18T19:19:24.037Z,46
2018-09-18T19:24:23.686Z,45.8
2018-09-18T19:29:22.965Z,46
2018-09-18T19:34:22.403Z,45.9
2018-09-18T19:39:21.613Z,45.9
2018-09-18T19:44:21.031Z,46
2018-09-18T19:49:20.151Z,46.4
2018-09-18T19:54:19.864Z,46.5
2018-09-18T19:59:19.540Z,46.6
2018-09-18T20:04:18.627Z,46.7
2018-09-18T20:09:17.935Z,46.9
2018-09-18T20:14:17.258Z,47.1
2018-09-18T20:19:16.936Z,47.3
2018-09-18T20:24:16.491Z,47.5
2018-09-18T20:29:15.955Z,47.7
2018-09-18T20:34:15.458Z,47.8
2018-09-18T20:39:14.952Z,47.8
2018-09-18T20:44:14.401Z,48
2018-09-18T20:49:13.564Z,48.2
2018-09-18T20:54:13.612Z,47.9
2018-09-18T20:59:12.999Z,48.1
2018-09-18T21:04:12.501Z,48.2
2018-09-18T21:09:12.053Z,48.1
2018-09-18T21:14:11.643Z,48.2
2018-09-18T21:19:11.897Z,48.2
2018-09-18T21:24:11.355Z,48.2
2018-09-18T21:29:11.069Z,48.2
2018-09-18T21:34:10.616Z,48.3
2018-09-18T21:39:10.029Z,48.3
2018-09-18T21:44:09.776Z,48.4
2018-09-18T21:49:09.124Z,48.5
2018-09-18T21:54:09.201Z,48.6
2018-09-18T21:59:08.899Z,48.9
2018-09-18T22:04:08.950Z,48.9
2018-09-18T22:09:08.625Z,48.8
2018-09-18T22:14:08.534Z,49
2018-09-18T22:19:08.596Z,49
2018-09-18T22:24:07.120Z,49.1
2018-09-18T22:29:06.770Z,49.1
2018-09-18T22:34:06.631Z,49.3
2018-09-18T22:39:06.576Z,49.4
2018-09-18T22:44:06.533Z,49.3
2018-09-18T22:49:06.668Z,49.6
2018-09-18T22:54:07.257Z,49.5
2018-09-18T22:59:07.738Z,49.5
2018-09-18T23:04:07.632Z,49.7
2018-09-18T23:09:07.349Z,49.6
2018-09-18T23:14:07.836Z,49.6
2018-09-18T23:19:08.146Z,49.6
